This is the latest recevied weather packets stored in our database for station/object N2PPN. If no packets are shown the sender has not sent any weather packets the latest 10 day(s).
| Time | Temp. | Humidity | Pressure | Rain* | Wind** | Luminosity | Snow |
|---|---|---|---|---|---|---|---|
| 1777779658 | 11.11° C | 54% | 1013.5 hPa | 0 mm | - | 0 W/m² | - |
| 1777779355 | 11.11° C | 54% | 1013.8 hPa | 0 mm | - | 0 W/m² | - |
| 1777779053 | 11.11° C | 54% | 1013.8 hPa | 0 mm | - | 0 W/m² | - |
| 1777778751 | 11.11° C | 55% | 1013.7 hPa | 0 mm | - | 0 W/m² | - |
| 1777778449 | 11.11° C | 55% | 1013.5 hPa | 0 mm | - | 0 W/m² | - |
| 1777778146 | 11.67° C | 56% | 1013.7 hPa | 0 mm | - | 0 W/m² | - |
| 1777777843 | 11.67° C | 56% | 1013.4 hPa | 0 mm | - | 0 W/m² | - |
| 1777777539 | 11.67° C | 55% | 1013.7 hPa | 0 mm | - | 0 W/m² | - |
| 1777777237 | 11.67° C | 55% | 1013.7 hPa | 0 mm | - | 0 W/m² | - |
| 1777776933 | 11.67° C | 57% | 1013.9 hPa | 0 mm | - | 0 W/m² | - |
| 1777776631 | 11.67° C | 55% | 1013.7 hPa | 0 mm | - | 0 W/m² | - |
| 1777776327 | 11.67° C | 55% | 1013.7 hPa | 0 mm | - | 0 W/m² | - |
| 1777775721 | 11.67° C | 52% | 1013.7 hPa | 0 mm | - | 0 W/m² | - |
| 1777775418 | 11.67° C | 51% | 1013.6 hPa | 0 mm | - | 0 W/m² | - |
| 1777775114 | 11.67° C | 51% | 1013.7 hPa | 0 mm | - | 0 W/m² | - |
| 1777773900 | 11.67° C | 50% | 1014 hPa | 0 mm | - | 0 W/m² | - |
| 1777772082 | 10.56° C | 81% | 1013.9 hPa | 0 mm | - | 0 W/m² | - |
| 1777771779 | 10.56° C | 82% | 1013.8 hPa | 0 mm | - | 0 W/m² | - |
| 1777769961 | 11.11° C | 82% | 1013.6 hPa | 0 mm | - | 0 W/m² | - |
| 1777768143 | 11.67° C | 77% | 1013.5 hPa | 0 mm | - | 0 W/m² | - |
| 1777767536 | 12.22° C | 76% | 1013.4 hPa | 0 mm | - | 0 W/m² | - |
| 1777767233 | 12.22° C | 76% | 1013.6 hPa | 0 mm | - | 0 W/m² | - |
| 1777764808 | 12.78° C | 74% | 1013.2 hPa | 0 mm | - | 15 W/m² | - |
| 1777764201 | 13.33° C | 74% | 1013 hPa | 0 mm | - | 23 W/m² | - |
| 1777761174 | 14.44° C | 55% | 1012.9 hPa | 0 mm | - | 37 W/m² | - |
* Rain latest hour (hover to see other rain measurements)
** Current wind speed in m/s (hover to see current wind gust speed)